KCLL

Easterwood Field Airport

College Station, Texas, USA
METAR KCLL 171353Z 00000KT 10SM CLR 08/06 A3025 RMK AO2 SLP243 T00780056
Observed Flight Rules
Dec-17 @ 13:53 UTC (36 minutes ago) Visual Flight Rules
Visibility Clouds
10 miles
  • Clear skies
Temperatures Readings
Current 8°C / 46°F
Dewpoint 6°C / 43°F
Humidity 87%
Altimeter 30.25" Hg
Pressure 1024.3 hPa
Elevation 96
METAR KCLL 171353Z 00000KT 10SM CLR 08/06 A3025 RMK AO2 SLP243 T00780056
Observed Flight Rules
Dec-17 @ 13:53 UTC
(36 minutes ago)
VFR
Clouds
  • Clear skies
Temperature Dewpoint
8°C / 46°F 6°C / 43°F
Humidity Altimeter Pressure
87% 30.25" Hg 1024.3 hPa